createdAt,value
2016-08-15T00:03:28.780Z,86.23
2016-08-15T00:13:29.191Z,83.22
2016-08-15T00:19:29.479Z,86.51
2016-08-15T00:25:29.676Z,82.63
2016-08-15T00:31:29.894Z,74.65
2016-08-15T00:37:30.149Z,78.39
2016-08-15T00:43:30.473Z,81.53
2016-08-15T00:53:30.793Z,84.11
2016-08-15T00:59:31.041Z,82.91
2016-08-15T01:05:31.293Z,75.82
2016-08-15T01:11:31.556Z,79.92
2016-08-15T01:17:31.781Z,85.98
2016-08-15T01:23:32.051Z,88.86
2016-08-15T01:29:32.308Z,89.99
2016-08-15T01:35:32.583Z,88.84
2016-08-15T01:42:32.798Z,90.22
2016-08-15T01:48:33.073Z,87.49
2016-08-15T01:54:33.311Z,80.98
2016-08-15T02:00:33.549Z,85.28
2016-08-15T02:06:33.833Z,87.68
2016-08-15T02:12:34.066Z,93.56
2016-08-15T02:18:34.327Z,70.98
2016-08-15T02:24:34.572Z,82.72
2016-08-15T02:30:34.810Z,91.71
2016-08-15T02:36:35.048Z,91.21
2016-08-15T02:42:35.302Z,95.52
2016-08-15T02:52:35.747Z,69.70
2016-08-15T02:58:36.002Z,52.39
2016-08-15T03:04:36.296Z,73.17
2016-08-15T03:10:36.554Z,68.16
2016-08-15T03:16:36.861Z,90.90
2016-08-15T03:22:37.144Z,99.77
2016-08-15T03:32:37.597Z,100.00
2016-08-15T03:38:37.884Z,87.13
2016-08-15T03:44:38.082Z,30.28
2016-08-15T03:49:55.014Z,80.81
2016-08-15T03:55:54.867Z,100.00
2016-08-15T04:01:54.933Z,100.00
2016-08-15T04:07:55.282Z,100.00
2016-08-15T04:13:55.713Z,95.54
2016-08-15T04:19:56.197Z,63.37
2016-08-15T04:25:56.666Z,10.40
2016-08-15T04:31:57.070Z,4.10
2016-08-15T04:37:57.558Z,18.55
2016-08-15T04:43:57.952Z,44.60
2016-08-15T04:50:00.253Z,49.95
2016-08-15T04:55:58.843Z,36.78
2016-08-15T05:01:59.397Z,39.05
2016-08-15T05:07:59.761Z,36.35
2016-08-15T05:14:00.261Z,52.09
2016-08-15T05:20:00.737Z,74.81
2016-08-15T05:26:01.154Z,92.77
2016-08-15T05:32:01.640Z,90.20
2016-08-15T05:38:02.064Z,72.80
2016-08-15T05:44:02.465Z,73.47
2016-08-15T05:50:02.965Z,72.81
2016-08-15T05:56:03.470Z,73.50
2016-08-15T06:02:03.876Z,46.62
2016-08-15T06:08:04.287Z,18.10
2016-08-15T06:14:04.749Z,0.26
2016-08-15T06:20:05.272Z,0.00
2016-08-15T06:26:05.705Z,0.00
2016-08-15T06:32:06.194Z,0.00
2016-08-15T06:38:06.594Z,0.00
2016-08-15T06:44:07.073Z,0.00
2016-08-15T06:50:07.455Z,0.00
2016-08-15T06:59:08.229Z,0.57
2016-08-15T07:05:08.660Z,22.30
2016-08-15T07:11:09.150Z,26.68
2016-08-15T07:17:09.633Z,22.35
2016-08-15T07:23:10.089Z,23.41
2016-08-15T07:29:10.577Z,0.04
2016-08-15T07:35:11.000Z,0.02
2016-08-15T07:41:11.474Z,0.01
2016-08-15T07:47:11.955Z,0.02
2016-08-15T07:53:12.379Z,0.00
2016-08-15T07:59:13.773Z,0.00
2016-08-15T08:05:13.382Z,0.00
2016-08-15T08:11:13.803Z,0.00
2016-08-15T08:17:14.275Z,0.02
2016-08-15T08:23:14.649Z,0.00
2016-08-15T08:29:15.155Z,0.00
2016-08-15T08:35:15.594Z,1.04
2016-08-15T08:41:15.990Z,10.81
2016-08-15T08:47:16.520Z,30.21
2016-08-15T08:53:16.856Z,78.95
2016-08-15T08:59:17.305Z,95.58
2016-08-15T09:05:17.771Z,99.52
2016-08-15T09:11:18.221Z,93.53
2016-08-15T09:17:18.726Z,83.10
2016-08-15T09:23:19.186Z,63.01
2016-08-15T09:29:19.542Z,85.19
2016-08-15T09:35:19.929Z,88.89
2016-08-15T09:41:20.302Z,82.75
2016-08-15T09:47:20.813Z,97.34
2016-08-15T09:53:21.197Z,99.74
2016-08-15T09:59:21.600Z,86.27
2016-08-15T10:05:22.082Z,35.26
2016-08-15T10:11:22.491Z,68.48
2016-08-15T10:17:22.891Z,39.68
2016-08-15T10:23:23.384Z,97.45
2016-08-15T10:29:23.684Z,87.45
2016-08-15T10:35:24.060Z,98.82
2016-08-15T10:46:24.955Z,100.00
2016-08-15T10:52:25.432Z,99.98
2016-08-15T10:58:25.925Z,97.36
2016-08-15T11:04:26.387Z,97.16
2016-08-15T11:10:26.826Z,99.86
2016-08-15T11:16:27.290Z,100.00
2016-08-15T11:22:27.760Z,99.97
2016-08-15T11:28:30.042Z,99.75
2016-08-15T11:34:28.635Z,91.54
2016-08-15T11:40:29.125Z,87.19
2016-08-15T11:46:29.567Z,99.34
2016-08-15T11:52:30.008Z,99.87
2016-08-15T11:58:30.447Z,99.92
2016-08-15T12:04:30.972Z,100.00
2016-08-15T12:10:31.447Z,100.00
2016-08-15T12:16:31.870Z,100.00
2016-08-15T12:22:32.409Z,100.00
2016-08-15T12:28:32.879Z,100.00
2016-08-15T12:34:33.292Z,100.00
2016-08-15T12:40:33.655Z,100.00
2016-08-15T12:46:34.156Z,100.00
2016-08-15T12:52:34.620Z,100.00
2016-08-15T12:58:35.068Z,100.00
2016-08-15T13:04:35.582Z,99.71
2016-08-15T13:10:35.969Z,91.80
2016-08-15T13:16:36.475Z,36.39
2016-08-15T13:22:36.948Z,22.75
2016-08-15T13:28:37.424Z,9.57
2016-08-15T13:34:37.784Z,49.91
2016-08-15T13:40:38.267Z,94.08
2016-08-15T13:46:38.781Z,61.10
2016-08-15T13:52:39.255Z,25.16
2016-08-15T13:58:39.769Z,13.87
2016-08-15T14:04:40.252Z,8.30
2016-08-15T14:10:40.671Z,13.09
2016-08-15T14:16:41.135Z,2.46
2016-08-15T14:22:41.596Z,0.90
2016-08-15T14:28:42.082Z,0.03
2016-08-15T14:34:42.566Z,0.02
2016-08-15T14:40:43.027Z,0.03
2016-08-15T14:46:43.456Z,0.04
2016-08-15T14:52:43.947Z,1.09
2016-08-15T14:58:44.397Z,21.81
2016-08-15T15:04:44.871Z,50.42
2016-08-15T15:10:45.307Z,41.63
2016-08-15T15:16:45.833Z,35.67
2016-08-15T15:22:46.250Z,52.00
2016-08-15T15:28:46.688Z,55.47
2016-08-15T15:34:47.168Z,49.35
2016-08-15T15:40:47.590Z,19.02
2016-08-15T15:46:48.053Z,0.16
2016-08-15T15:52:48.547Z,0.00
2016-08-15T15:58:49.086Z,0.10
2016-08-15T16:04:49.554Z,1.90
2016-08-15T16:10:49.996Z,0.60
2016-08-15T16:16:50.467Z,0.16
2016-08-15T16:22:50.900Z,0.12
2016-08-15T16:28:51.453Z,0.69
2016-08-15T16:34:51.873Z,0.90
2016-08-15T16:40:52.288Z,0.02
2016-08-15T16:46:52.781Z,0.34
2016-08-15T16:52:53.297Z,0.55
2016-08-15T16:58:53.708Z,1.05
2016-08-15T17:04:54.147Z,1.83
2016-08-15T17:10:54.681Z,0.01
2016-08-15T17:16:55.191Z,0.57
2016-08-15T17:22:55.552Z,3.26
2016-08-15T17:28:56.111Z,0.03
2016-08-15T17:34:56.557Z,0.04
2016-08-15T17:40:56.986Z,1.90
2016-08-15T17:48:57.667Z,0.58
2016-08-15T17:54:58.066Z,8.65
2016-08-15T18:00:58.618Z,2.97
2016-08-15T18:06:59.651Z,0.00
2016-08-15T18:13:00.068Z,0.17
2016-08-15T18:19:01.410Z,0.42
2016-08-15T18:25:00.413Z,0.08
2016-08-15T18:31:00.821Z,0.32
2016-08-15T18:37:02.794Z,0.00
2016-08-15T18:43:01.774Z,0.04
2016-08-15T18:49:02.245Z,55.83
2016-08-15T18:55:02.676Z,81.77
2016-08-15T19:01:03.174Z,72.33
2016-08-15T19:07:03.625Z,99.54
2016-08-15T19:13:04.805Z,83.01
2016-08-15T19:19:05.612Z,50.45
2016-08-15T19:29:49.602Z,72.80
2016-08-15T19:35:49.907Z,100.00
2016-08-15T19:41:50.183Z,100.00
2016-08-15T19:47:50.470Z,100.00
2016-08-15T19:53:50.791Z,99.10
2016-08-15T19:59:51.069Z,67.54
2016-08-15T20:05:51.332Z,20.24
2016-08-15T20:11:51.613Z,28.61
2016-08-15T20:22:52.136Z,83.98
2016-08-15T20:28:52.377Z,89.76
2016-08-15T20:37:52.754Z,87.09
2016-08-15T20:43:52.921Z,96.45
2016-08-15T20:53:53.271Z,91.04
2016-08-15T20:59:53.540Z,88.84
2016-08-15T21:07:53.799Z,92.40
2016-08-15T21:13:54.036Z,94.90
2016-08-15T21:19:54.286Z,83.17
2016-08-15T21:25:54.549Z,87.66
2016-08-15T21:31:54.814Z,86.67
2016-08-15T21:39:55.065Z,93.53
2016-08-15T21:45:55.322Z,84.16
2016-08-15T21:51:55.582Z,83.39
2016-08-15T22:02:56.025Z,84.20
2016-08-15T22:11:56.398Z,80.48
2016-08-15T22:17:56.629Z,83.21
2016-08-15T22:27:57.043Z,81.94
2016-08-15T22:33:57.330Z,84.90
2016-08-15T22:39:57.588Z,79.43
2016-08-15T22:45:57.873Z,78.37
2016-08-15T22:51:58.114Z,80.33
2016-08-15T22:57:58.402Z,83.46
2016-08-15T23:03:58.655Z,78.39
2016-08-15T23:09:58.909Z,84.85
2016-08-15T23:15:59.163Z,78.21
2016-08-15T23:21:59.428Z,78.40
2016-08-15T23:27:59.706Z,85.61
2016-08-15T23:33:59.937Z,76.11
2016-08-15T23:40:00.191Z,83.68
2016-08-15T23:46:00.439Z,82.70
2016-08-15T23:52:00.688Z,86.10
2016-08-15T23:58:00.955Z,82.79
